createdAt,value
2023-01-17T00:01:48.495Z,67.82
2023-01-17T00:12:16.868Z,67.39
2023-01-17T00:23:02.541Z,67.38
2023-01-17T00:33:29.210Z,67.30
2023-01-17T00:44:14.442Z,67.54
2023-01-17T00:54:59.635Z,67.84
2023-01-17T01:05:45.007Z,67.60
2023-01-17T01:16:30.772Z,67.24
2023-01-17T01:27:15.480Z,67.18
2023-01-17T01:37:42.962Z,67.63
2023-01-17T01:48:23.158Z,67.27
2023-01-17T01:58:54.431Z,66.98
2023-01-17T02:09:22.895Z,67.02
2023-01-17T02:20:22.804Z,66.45
2023-01-17T02:30:53.302Z,66.91
2023-01-17T02:41:23.794Z,67.17
2023-01-17T02:52:23.998Z,67.34
2023-01-17T03:03:03.140Z,67.83
2023-01-17T03:13:31.191Z,68.02
2023-01-17T03:23:58.679Z,67.43
2023-01-17T03:34:26.549Z,66.90
2023-01-17T03:44:54.027Z,67.59
2023-01-17T03:55:21.995Z,67.51
2023-01-17T04:05:49.590Z,66.80
2023-01-17T04:16:19.490Z,66.19
2023-01-17T04:26:47.229Z,65.92
2023-01-17T04:37:14.735Z,65.55
2023-01-17T04:47:42.636Z,65.59
2023-01-17T04:58:10.273Z,65.48
2023-01-17T05:08:37.810Z,65.52
2023-01-17T05:19:05.375Z,65.26
2023-01-17T05:29:33.133Z,65.21
2023-01-17T05:40:00.666Z,64.86
2023-01-17T05:50:31.329Z,64.79
2023-01-17T06:00:59.134Z,65.73
2023-01-17T06:11:26.972Z,66.15
2023-01-17T06:21:54.506Z,65.96
2023-01-17T06:32:22.126Z,65.87
2023-01-17T06:42:49.688Z,65.90
2023-01-17T06:53:17.325Z,65.83
2023-01-17T07:03:45.129Z,65.92
2023-01-17T07:14:16.757Z,65.95
2023-01-17T07:24:44.474Z,65.81
2023-01-17T07:35:13.920Z,64.97
2023-01-17T07:45:44.164Z,65.65
2023-01-17T07:56:11.798Z,66.23
2023-01-17T08:06:43.202Z,67.00
2023-01-17T08:17:14.793Z,67.95
2023-01-17T08:27:43.060Z,68.21
2023-01-17T08:38:11.513Z,67.52
2023-01-17T08:48:38.991Z,67.51
2023-01-17T08:59:06.604Z,67.93
2023-01-17T09:09:34.096Z,68.33
2023-01-17T09:20:01.601Z,68.47
2023-01-17T09:30:29.248Z,68.82
2023-01-17T09:40:56.798Z,69.03
2023-01-17T09:51:25.644Z,69.21
2023-01-17T10:02:03.909Z,69.48
2023-01-17T10:12:41.008Z,69.64
2023-01-17T10:23:33.445Z,69.56
2023-01-17T10:34:07.031Z,69.14
2023-01-17T10:44:40.956Z,68.22
2023-01-17T10:55:25.265Z,67.50
2023-01-17T11:06:19.162Z,66.95
2023-01-17T11:16:47.855Z,66.21
2023-01-17T11:27:25.378Z,65.17
2023-01-17T11:38:01.825Z,64.45
2023-01-17T11:48:33.713Z,63.81
2023-01-17T11:59:25.465Z,63.28
2023-01-17T12:10:05.425Z,62.31
2023-01-17T12:20:42.661Z,62.47
2023-01-17T12:31:20.351Z,61.36
2023-01-17T12:42:00.618Z,61.06
2023-01-17T12:52:40.288Z,59.88
2023-01-17T13:03:17.656Z,58.74
2023-01-17T13:13:45.976Z,58.62
2023-01-17T13:24:23.982Z,57.95
2023-01-17T13:35:13.873Z,57.78
2023-01-17T13:45:42.622Z,57.53
2023-01-17T13:56:16.465Z,57.39
2023-01-17T14:06:46.763Z,57.42
2023-01-17T14:17:37.939Z,57.66
2023-01-17T14:28:09.154Z,57.64
2023-01-17T14:38:42.598Z,57.75
2023-01-17T14:49:25.474Z,58.18
2023-01-17T14:59:52.993Z,58.60
2023-01-17T15:10:24.114Z,58.75
2023-01-17T15:20:58.131Z,58.94
2023-01-17T15:31:38.446Z,59.60
2023-01-17T15:42:08.761Z,60.01
2023-01-17T15:52:49.304Z,59.94
2023-01-17T16:03:26.189Z,59.72
2023-01-17T16:13:53.809Z,59.48
2023-01-17T16:24:21.367Z,59.10
2023-01-17T16:34:49.076Z,58.78
2023-01-17T16:45:17.988Z,58.27
2023-01-17T16:55:46.096Z,58.37
2023-01-17T17:06:15.132Z,58.22
2023-01-17T17:16:43.686Z,58.36
2023-01-17T17:27:09.801Z,58.93
2023-01-17T17:37:37.555Z,59.16
2023-01-17T17:48:05.506Z,59.40
2023-01-17T17:58:33.995Z,59.64
2023-01-17T18:09:01.597Z,59.56
2023-01-17T18:19:29.516Z,59.82
2023-01-17T18:29:57.034Z,60.24
2023-01-17T18:40:24.755Z,60.56
2023-01-17T18:50:59.753Z,60.68
2023-01-17T19:01:29.282Z,60.58
2023-01-17T19:11:57.610Z,60.82
2023-01-17T19:22:25.416Z,60.99
2023-01-17T19:32:53.693Z,61.03
2023-01-17T19:43:21.408Z,61.46
2023-01-17T19:53:49.180Z,61.48
2023-01-17T20:04:18.190Z,61.62
2023-01-17T20:14:45.883Z,61.51
2023-01-17T20:25:14.662Z,61.60
2023-01-17T20:35:40.969Z,61.56
2023-01-17T20:46:09.182Z,61.31
2023-01-17T20:56:37.977Z,61.34
2023-01-17T21:07:05.628Z,61.50
2023-01-17T21:17:34.881Z,61.72
2023-01-17T21:28:02.543Z,61.37
2023-01-17T21:38:31.439Z,61.49
2023-01-17T21:48:59.232Z,61.60
2023-01-17T21:59:26.786Z,62.13
2023-01-17T22:09:54.717Z,61.75
2023-01-17T22:20:22.595Z,61.49
2023-01-17T22:30:50.375Z,61.62
2023-01-17T22:41:20.285Z,61.64
2023-01-17T22:51:47.914Z,61.56
2023-01-17T23:02:16.674Z,61.64
2023-01-17T23:12:44.312Z,61.78
2023-01-17T23:23:11.856Z,61.59
2023-01-17T23:33:39.414Z,61.61
2023-01-17T23:44:07.053Z,61.97
2023-01-17T23:54:35.170Z,62.80
